Time;durP1;ratioP1;P1;durP2;ratioP2;P2;SDS_P1;SDS_P2;PMS_P1;PMS_P2;Temp;Humidity;BMP_temperature;BMP_pressure;BME280_temperature;BME280_humidity;BME280_pressure;Samples;Min_cycle;Max_cycle;Signal;HPM_P1;HPM_P2
2024/01/08 00:00:28;;;;;;;;;;;;;;;-1.13;77.59;97409.56;4351364;33;19975;-81
2024/01/08 00:02:54;;;;;;;;;;;;;;;-1.33;78.60;97397.03;4351577;33;20318;-81
2024/01/08 00:05:21;;;;;;;;;;;;;;;-1.13;77.41;97401.97;4351373;32;20031;-81
2024/01/08 00:07:48;;;;;;;;;;;;;;;-1.48;79.89;97412.31;4351290;33;19971;-81
2024/01/08 00:10:15;;;;;;;;;;;;;;;-1.69;80.87;97409.91;4351542;33;20317;-81
2024/01/08 00:12:41;;;;;;;;;;;;;;;-1.96;81.52;97408.31;4351668;32;20315;-81
2024/01/08 00:15:08;;;;;;;;;;;;;;;-1.52;80.31;97410.63;4351145;33;20290;-80
2024/01/08 00:17:35;;;;;;;;;;;;;;;-2.20;82.19;97412.59;4351365;33;20354;-81
2024/01/08 00:20:02;;;;;;;;;;;;;;;-1.53;80.05;97414.03;4350405;33;19998;-81
2024/01/08 00:22:29;;;;;;;;;;;;;;;-1.39;79.36;97413.94;4350063;33;20009;-81
2024/01/08 00:24:55;;;;;;;;;;;;;;;-1.19;78.66;97414.66;4351273;32;19970;-81
2024/01/08 00:27:22;;;;;;;;;;;;;;;-1.49;78.87;97424.13;4351339;33;19966;-81
2024/01/08 00:29:49;;;;;;;;;;;;;;;-1.56;79.66;97416.56;4349874;33;19979;-81
2024/01/08 00:32:16;;;;;;;;;;;;;;;-2.03;80.55;97422.63;4351506;33;20006;-81
2024/01/08 00:34:42;;;;;;;;;;;;;;;-1.56;78.78;97414.88;4351466;33;19989;-81
2024/01/08 00:37:09;;;;;;;;;;;;;;;-1.14;76.77;97415.47;4350882;33;19967;-81
2024/01/08 00:39:36;;;;;;;;;;;;;;;-1.11;76.26;97428.12;4351571;33;20004;-81
2024/01/08 00:42:03;;;;;;;;;;;;;;;-1.67;77.52;97424.22;4351520;32;20291;-81
2024/01/08 00:44:29;;;;;;;;;;;;;;;-0.88;74.20;97420.34;4351093;33;19979;-81
2024/01/08 00:46:56;;;;;;;;;;;;;;;-1.18;75.93;97432.37;4351016;33;19967;-81
2024/01/08 00:49:23;;;;;;;;;;;;;;;-1.08;74.56;97427.25;4351145;33;20004;-81
2024/01/08 00:51:50;;;;;;;;;;;;;;;-1.08;74.49;97435.69;4351519;32;20362;-81
2024/01/08 00:54:16;;;;;;;;;;;;;;;-1.65;76.41;97447.81;4351238;33;19975;-81
2024/01/08 00:56:43;;;;;;;;;;;;;;;-1.77;75.99;97432.69;4350746;33;19967;-80
2024/01/08 00:59:10;;;;;;;;;;;;;;;-1.97;78.69;97455.50;4351323;33;19993;-81
2024/01/08 01:01:36;;;;;;;;;;;;;;;-1.79;79.21;97457.16;4351372;33;19983;-81
2024/01/08 01:04:03;;;;;;;;;;;;;;;-2.05;78.85;97442.03;4350976;33;20014;-81
2024/01/08 01:06:30;;;;;;;;;;;;;;;-1.79;78.48;97449.56;4351037;33;20002;-81
2024/01/08 01:08:57;;;;;;;;;;;;;;;-1.67;78.14;97456.25;4351242;33;19975;-81
2024/01/08 01:11:24;;;;;;;;;;;;;;;-2.19;79.72;97462.28;4350961;33;20291;-81
2024/01/08 01:13:51;;;;;;;;;;;;;;;-2.32;81.16;97458.13;4351186;33;19971;-81
2024/01/08 01:16:18;;;;;;;;;;;;;;;-2.67;81.11;97450.53;4350861;33;19971;-81
2024/01/08 01:18:45;;;;;;;;;;;;;;;-2.36;81.83;97453.88;4350915;32;20038;-81
2024/01/08 01:21:15;;;;;;;;;;;;;;;-2.27;80.24;97461.47;4351182;33;20038;-81
2024/01/08 01:23:42;;;;;;;;;;;;;;;-2.24;79.60;97463.97;4350152;33;20371;-81
2024/01/08 01:26:09;;;;;;;;;;;;;;;-2.20;79.93;97463.13;4350364;33;20015;-81
2024/01/08 01:28:36;;;;;;;;;;;;;;;-2.08;80.10;97468.16;4351012;33;20038;-80
2024/01/08 01:31:03;;;;;;;;;;;;;;;-2.32;80.52;97468.22;4351136;33;19986;-81
2024/01/08 01:33:30;;;;;;;;;;;;;;;-2.51;79.99;97457.28;4350760;33;19983;-81
2024/01/08 01:35:57;;;;;;;;;;;;;;;-2.53;80.83;97458.97;4350822;33;19981;-81
2024/01/08 01:38:24;;;;;;;;;;;;;;;-2.10;78.46;97466.50;4350785;33;20043;-80
2024/01/08 01:40:51;;;;;;;;;;;;;;;-2.24;79.26;97463.97;4351128;33;20050;-81
2024/01/08 01:43:28;;;;;;;;;;;;;;;-2.59;81.12;97465.69;4350938;33;20049;-81
2024/01/08 01:45:57;;;;;;;;;;;;;;;-2.30;79.91;97458.09;4350498;33;20002;-80
2024/01/08 01:48:23;;;;;;;;;;;;;;;-2.27;80.23;97466.50;4349802;33;20046;-81
2024/01/08 01:50:50;;;;;;;;;;;;;;;-2.39;79.64;97456.44;4349930;33;19983;-81
2024/01/08 01:53:17;;;;;;;;;;;;;;;-2.25;77.50;97466.50;4350565;33;20037;-81
2024/01/08 01:55:43;;;;;;;;;;;;;;;-2.36;78.65;97461.47;4350659;33;20018;-80
2024/01/08 01:58:11;;;;;;;;;;;;;;;-2.01;77.72;97466.47;4349873;33;19991;-80
2024/01/08 02:00:37;;;;;;;;;;;;;;;-2.26;78.52;97473.25;4349496;33;20029;-81
2024/01/08 02:03:05;;;;;;;;;;;;;;;-1.99;77.83;97481.62;4350874;33;19967;-81
2024/01/08 02:05:33;;;;;;;;;;;;;;;-1.84;76.34;97495.06;4350746;33;19967;-80
2024/01/08 02:08:00;;;;;;;;;;;;;;;-2.30;77.77;97475.78;4349056;33;19982;-81
2024/01/08 02:10:27;;;;;;;;;;;;;;;-2.19;78.06;97477.47;4349625;33;19995;-80
2024/01/08 02:12:53;;;;;;;;;;;;;;;-2.08;77.52;97475.75;4349701;33;20062;-81
2024/01/08 02:15:20;;;;;;;;;;;;;;;-1.88;76.53;97490.03;4350313;33;20364;-80
2024/01/08 02:17:47;;;;;;;;;;;;;;;-2.25;78.28;97471.56;4350833;33;19975;-81
2024/01/08 02:20:13;;;;;;;;;;;;;;;-2.12;77.80;97475.78;4350240;33;19979;-81
2024/01/08 02:22:43;;;;;;;;;;;;;;;-2.48;79.75;97476.63;4350436;33;19992;-80
2024/01/08 02:25:10;;;;;;;;;;;;;;;-2.81;79.87;97468.22;4350621;32;20015;-81
2024/01/08 02:27:37;;;;;;;;;;;;;;;-2.66;79.86;97469.91;4350360;33;19987;-81
2024/01/08 02:30:04;;;;;;;;;;;;;;;-2.07;77.58;97459.75;4350780;33;20045;-81
2024/01/08 02:32:31;;;;;;;;;;;;;;;-2.77;79.59;97446.31;4350615;32;19989;-81
2024/01/08 02:34:58;;;;;;;;;;;;;;;-2.47;79.81;97478.31;4350329;33;20022;-81
2024/01/08 02:37:25;;;;;;;;;;;;;;;-2.39;78.70;97471.59;4350404;33;19971;-81
2024/01/08 02:39:51;;;;;;;;;;;;;;;-2.41;78.98;97470.75;4350640;33;20029;-80
2024/01/08 02:42:18;;;;;;;;;;;;;;;-2.62;80.19;97474.97;4349249;33;20676;-81
2024/01/08 02:44:45;;;;;;;;;;;;;;;-2.56;78.59;97475.78;4350669;33;20385;-81
2024/01/08 02:47:12;;;;;;;;;;;;;;;-2.45;79.99;97477.47;4350338;32;20033;-81
2024/01/08 02:49:38;;;;;;;;;;;;;;;-2.68;79.72;97479.16;4350269;33;20054;-80
2024/01/08 02:52:05;;;;;;;;;;;;;;;-2.66;79.27;97475.81;4350556;32;20026;-81
2024/01/08 02:54:32;;;;;;;;;;;;;;;-2.51;79.63;97485.06;4350538;33;19984;-81
2024/01/08 02:56:59;;;;;;;;;;;;;;;-2.52;80.84;97488.44;4348667;33;19972;-81
2024/01/08 02:59:26;;;;;;;;;;;;;;;-2.56;79.92;97485.91;4350562;33;19983;-80
2024/01/08 03:01:53;;;;;;;;;;;;;;;-2.59;79.29;97489.28;4350438;33;19994;-80
2024/01/08 03:04:19;;;;;;;;;;;;;;;-2.06;78.16;97494.28;4350041;33;20303;-80
2024/01/08 03:06:46;;;;;;;;;;;;;;;-2.57;78.56;97489.25;4350070;33;19975;-80
2024/01/08 03:09:13;;;;;;;;;;;;;;;-3.04;80.55;97495.97;4350490;33;19987;-81
2024/01/08 03:11:39;;;;;;;;;;;;;;;-2.49;78.54;97485.06;4349959;33;19979;-80
2024/01/08 03:14:06;;;;;;;;;;;;;;;-2.89;79.30;97487.56;4350440;33;19975;-80
2024/01/08 03:16:33;;;;;;;;;;;;;;;-3.06;81.37;97487.56;4349721;33;19975;-80
2024/01/08 03:19:00;;;;;;;;;;;;;;;-2.91;79.95;97492.59;4350425;33;19999;-80
2024/01/08 03:21:26;;;;;;;;;;;;;;;-2.79;80.01;97501.87;4350196;33;19974;-81
2024/01/08 03:23:53;;;;;;;;;;;;;;;-3.18;81.72;97502.66;4349996;33;20026;-80
2024/01/08 03:26:20;;;;;;;;;;;;;;;-2.83;80.60;97507.78;4349787;33;20050;-80
2024/01/08 03:28:47;;;;;;;;;;;;;;;-3.00;80.15;97512.78;4350317;33;20017;-81
2024/01/08 03:31:13;;;;;;;;;;;;;;;-3.01;81.07;97520.34;4349622;32;19983;-80
2024/01/08 03:33:40;;;;;;;;;;;;;;;-2.43;78.92;97522.97;4349237;33;20038;-80
2024/01/08 03:36:10;;;;;;;;;;;;;;;-2.16;76.40;97529.69;4349849;33;20030;-80
2024/01/08 03:38:37;;;;;;;;;;;;;;;-2.34;76.70;97533.91;4349976;33;20021;-80
2024/01/08 03:41:04;;;;;;;;;;;;;;;-3.01;79.05;97531.28;4350071;33;19971;-80
2024/01/08 03:43:31;;;;;;;;;;;;;;;-2.13;75.98;97535.56;4349992;33;19974;-80
2024/01/08 03:45:58;;;;;;;;;;;;;;;-2.37;76.92;97566.75;4349352;33;19993;-81
2024/01/08 03:48:24;;;;;;;;;;;;;;;-2.13;75.48;97554.94;4349959;33;19987;-80
2024/01/08 03:50:51;;;;;;;;;;;;;;;-2.33;76.54;97577.72;4349935;33;19971;-80
2024/01/08 03:53:18;;;;;;;;;;;;;;;-2.39;76.99;97572.66;4349454;33;20443;-81
2024/01/08 03:55:44;;;;;;;;;;;;;;;-2.48;77.18;97576.00;4348451;33;19987;-80
2024/01/08 03:58:11;;;;;;;;;;;;;;;-1.92;75.68;97576.84;4349908;33;20038;-80
2024/01/08 04:00:38;;;;;;;;;;;;;;;-2.09;75.39;97559.16;4349502;33;19978;-80
2024/01/08 04:03:05;;;;;;;;;;;;;;;-1.82;73.98;97571.78;4349780;33;19967;-80
2024/01/08 04:05:31;;;;;;;;;;;;;;;-2.29;75.45;97563.38;4349739;33;19991;-80
2024/01/08 04:07:58;;;;;;;;;;;;;;;-1.83;73.90;97566.72;4349210;32;19975;-81
2024/01/08 04:10:25;;;;;;;;;;;;;;;-1.86;74.65;97577.69;4349545;33;19971;-81
2024/01/08 04:12:52;;;;;;;;;;;;;;;-2.00;73.96;97581.91;4348298;33;20050;-80
2024/01/08 04:15:19;;;;;;;;;;;;;;;-2.50;75.40;97581.91;4349534;33;19975;-80
2024/01/08 04:17:45;;;;;;;;;;;;;;;-2.10;74.96;97593.72;4349534;33;20038;-80
2024/01/08 04:20:12;;;;;;;;;;;;;;;-1.99;74.36;97588.66;4349148;33;19990;-80
2024/01/08 04:22:41;;;;;;;;;;;;;;;-1.68;73.08;97601.28;4349576;33;19975;-80
2024/01/08 04:25:08;;;;;;;;;;;;;;;-1.34;71.32;97612.16;4348083;33;20038;-80
2024/01/08 04:27:35;;;;;;;;;;;;;;;-1.86;73.31;97615.63;4348969;33;19990;-81
2024/01/08 04:30:02;;;;;;;;;;;;;;;-2.03;73.80;97614.78;4349412;33;20038;-81
2024/01/08 04:32:29;;;;;;;;;;;;;;;-1.56;71.84;97593.66;4349348;33;19971;-81
2024/01/08 04:34:56;;;;;;;;;;;;;;;-2.08;74.69;97599.63;4348904;33;19967;-81
2024/01/08 04:37:22;;;;;;;;;;;;;;;-2.34;74.79;97611.38;4349183;32;19983;-81
2024/01/08 04:39:49;;;;;;;;;;;;;;;-1.64;72.99;97603.78;4349247;33;19982;-81
2024/01/08 04:42:16;;;;;;;;;;;;;;;-2.06;72.68;97612.25;4348799;33;19971;-80
2024/01/08 04:44:43;;;;;;;;;;;;;;;-2.20;73.67;97619.00;4350763;33;19987;-81
2024/01/08 04:47:09;;;;;;;;;;;;;;;-2.53;75.52;97628.22;4351090;33;19975;-80
2024/01/08 04:49:36;;;;;;;;;;;;;;;-2.37;75.13;97617.28;4351019;33;20046;-80
2024/01/08 04:52:03;;;;;;;;;;;;;;;-1.97;73.87;97616.47;4351347;33;20034;-80
2024/01/08 04:54:30;;;;;;;;;;;;;;;-2.62;75.29;97615.56;4351329;33;20006;-80
2024/01/08 04:56:56;;;;;;;;;;;;;;;-2.64;76.33;97635.75;4350818;32;20037;-80
2024/01/08 04:59:23;;;;;;;;;;;;;;;-2.04;75.53;97640.91;4351338;33;20058;-81
2024/01/08 05:01:50;;;;;;;;;;;;;;;-1.93;73.59;97618.97;4350952;33;19982;-80
2024/01/08 05:04:17;;;;;;;;;;;;;;;-1.86;73.46;97623.19;4351332;33;20006;-81
2024/01/08 05:06:44;;;;;;;;;;;;;;;-2.42;75.80;97621.50;4351032;33;20074;-80
2024/01/08 05:09:11;;;;;;;;;;;;;;;-1.65;73.69;97635.00;4350984;33;19989;-80
2024/01/08 05:11:38;;;;;;;;;;;;;;;-2.43;75.92;97641.72;4351228;33;19970;-80
2024/01/08 05:14:05;;;;;;;;;;;;;;;-3.05;77.96;97638.13;4351066;33;20362;-80
2024/01/08 05:16:32;;;;;;;;;;;;;;;-3.02;78.98;97640.66;4350611;33;20397;-80
2024/01/08 05:18:58;;;;;;;;;;;;;;;-2.17;76.85;97651.84;4351311;32;20315;-81
2024/01/08 05:21:25;;;;;;;;;;;;;;;-2.80;76.98;97645.78;4351194;33;19966;-80
2024/01/08 05:23:52;;;;;;;;;;;;;;;-2.46;77.81;97646.72;4350770;33;20035;-80
2024/01/08 05:26:19;;;;;;;;;;;;;;;-2.10;75.51;97667.03;4350901;33;20377;-80
2024/01/08 05:28:46;;;;;;;;;;;;;;;-2.07;74.70;97658.59;4351022;33;19986;-80
2024/01/08 05:31:12;;;;;;;;;;;;;;;-2.74;75.97;97659.31;4350714;33;19971;-80
2024/01/08 05:33:39;;;;;;;;;;;;;;;-2.26;75.81;97664.47;4351120;33;19979;-80
2024/01/08 05:36:06;;;;;;;;;;;;;;;-2.53;76.82;97671.16;4350875;33;20046;-80
2024/01/08 05:38:33;;;;;;;;;;;;;;;-1.73;73.59;97672.09;4350760;33;19995;-80
2024/01/08 05:41:00;;;;;;;;;;;;;;;-1.85;74.12;97662.81;4350906;33;19985;-80
2024/01/08 05:43:26;;;;;;;;;;;;;;;-2.29;76.45;97669.53;4350876;32;19974;-80
2024/01/08 05:45:53;;;;;;;;;;;;;;;-1.99;75.60;97664.50;4350400;33;20443;-80
2024/01/08 05:48:20;;;;;;;;;;;;;;;-1.97;75.78;97670.41;4350729;33;19983;-80
2024/01/08 05:50:47;;;;;;;;;;;;;;;-2.06;75.16;97667.88;4350994;33;19967;-80
2024/01/08 05:53:14;;;;;;;;;;;;;;;-2.56;75.98;97670.28;4350584;33;19990;-80
2024/01/08 05:55:41;;;;;;;;;;;;;;;-2.98;78.22;97674.31;4350024;33;19983;-80
2024/01/08 05:58:07;;;;;;;;;;;;;;;-3.11;79.83;97668.37;4350425;33;19985;-81
2024/01/08 06:00:34;;;;;;;;;;;;;;;-2.35;76.94;97670.34;4350831;33;19980;-80
2024/01/08 06:03:01;;;;;;;;;;;;;;;-2.12;76.62;97690.63;4350826;33;20287;-81
2024/01/08 06:05:27;;;;;;;;;;;;;;;-2.35;76.80;97698.13;4350486;33;19987;-80
2024/01/08 06:07:54;;;;;;;;;;;;;;;-2.54;78.08;97712.41;4350635;33;20061;-80
2024/01/08 06:10:21;;;;;;;;;;;;;;;-2.86;79.99;97707.22;4350714;33;20307;-80
2024/01/08 06:12:48;;;;;;;;;;;;;;;-2.23;77.32;97703.25;4350417;33;19974;-81
2024/01/08 06:15:15;;;;;;;;;;;;;;;-2.06;76.67;97708.31;4350616;33;19978;-80
2024/01/08 06:17:44;;;;;;;;;;;;;;;-2.67;78.39;97714.03;4349493;33;19975;-80
2024/01/08 06:20:12;;;;;;;;;;;;;;;-2.82;78.24;97713.13;4350521;33;19967;-80
2024/01/08 06:22:39;;;;;;;;;;;;;;;-2.24;77.95;97725.94;4350749;32;20307;-80
2024/01/08 06:25:06;;;;;;;;;;;;;;;-2.09;75.40;97718.44;4350559;33;20018;-80
2024/01/08 06:27:33;;;;;;;;;;;;;;;-1.54;73.31;97728.59;4350151;33;19990;-80
2024/01/08 06:30:00;;;;;;;;;;;;;;;-2.30;75.07;97736.91;4344919;33;153291;-80
2024/01/08 06:32:26;;;;;;;;;;;;;;;-2.52;75.72;97728.41;4349396;33;20455;-80
2024/01/08 06:34:54;;;;;;;;;;;;;;;-2.29;75.50;97715.00;4350340;33;19978;-80
2024/01/08 06:37:20;;;;;;;;;;;;;;;-2.33;76.72;97725.13;4350396;33;19970;-80
2024/01/08 06:39:47;;;;;;;;;;;;;;;-2.90;79.56;97730.75;4350578;33;20228;-80
2024/01/08 06:42:14;;;;;;;;;;;;;;;-2.36;77.22;97741.94;4350244;33;19975;-80
2024/01/08 06:44:41;;;;;;;;;;;;;;;-2.05;76.07;97747.91;4350584;33;20460;-80
2024/01/08 06:47:08;;;;;;;;;;;;;;;-2.63;78.24;97743.53;4349888;33;19971;-80
2024/01/08 06:49:35;;;;;;;;;;;;;;;-2.53;78.90;97751.16;4350754;33;20025;-81
2024/01/08 06:52:02;;;;;;;;;;;;;;;-2.42;78.82;97754.56;4349367;33;20454;-81
2024/01/08 06:54:28;;;;;;;;;;;;;;;-2.54;77.75;97750.31;4350137;33;20029;-81
2024/01/08 06:56:55;;;;;;;;;;;;;;;-2.75;80.12;97765.34;4350647;33;20342;-81
2024/01/08 06:59:22;;;;;;;;;;;;;;;-2.57;79.39;97740.16;4349340;33;19983;-81
2024/01/08 07:01:51;;;;;;;;;;;;;;;-2.80;79.55;97772.88;4349940;33;19975;-81
2024/01/08 07:04:18;;;;;;;;;;;;;;;-2.55;78.86;97765.44;4350772;33;20317;-81
2024/01/08 07:06:45;;;;;;;;;;;;;;;-3.05;80.31;97773.59;4350800;33;20036;-81
2024/01/08 07:09:12;;;;;;;;;;;;;;;-2.86;79.03;97772.88;4349989;33;19983;-82
2024/01/08 07:11:38;;;;;;;;;;;;;;;-3.13;80.11;97773.53;4350358;33;19975;-81
2024/01/08 07:14:05;;;;;;;;;;;;;;;-3.33;81.82;97760.75;4350406;33;20009;-81
2024/01/08 07:16:32;;;;;;;;;;;;;;;-3.23;80.80;97790.28;4349821;33;19971;-81
2024/01/08 07:18:59;;;;;;;;;;;;;;;-3.39;81.92;97796.06;4350195;33;20029;-81
2024/01/08 07:21:27;;;;;;;;;;;;;;;-3.35;82.66;97805.31;4350095;33;20326;-81
2024/01/08 07:23:54;;;;;;;;;;;;;;;-3.61;83.65;97811.84;4349899;33;19993;-81
2024/01/08 07:26:21;;;;;;;;;;;;;;;-3.72;84.95;97804.16;4349957;33;20017;-80
2024/01/08 07:28:48;;;;;;;;;;;;;;;-3.12;82.67;97817.28;4351653;33;19963;-80
2024/01/08 07:31:17;;;;;;;;;;;;;;;-3.02;82.20;97824.09;4348520;33;20042;-81
2024/01/08 07:33:44;;;;;;;;;;;;;;;-2.85;80.28;97830.09;4350151;33;20663;-81
2024/01/08 07:36:11;;;;;;;;;;;;;;;-3.00;81.28;97833.34;4349715;33;20085;-81
2024/01/08 07:38:38;;;;;;;;;;;;;;;-3.33;82.47;97825.50;4349902;33;19971;-81
2024/01/08 07:41:07;;;;;;;;;;;;;;;-3.38;84.10;97843.16;4349905;33;19979;-81
2024/01/08 07:43:36;;;;;;;;;;;;;;;-3.26;83.31;97838.22;4348680;33;20122;-80
2024/01/08 07:46:03;;;;;;;;;;;;;;;-2.88;81.11;97837.63;4350562;33;19971;-81
2024/01/08 07:48:29;;;;;;;;;;;;;;;-2.86;80.34;97838.50;4351355;33;20357;-81
2024/01/08 07:50:56;;;;;;;;;;;;;;;-2.70;78.42;97844.50;4349729;33;19971;-82
2024/01/08 07:53:23;;;;;;;;;;;;;;;-2.97;80.76;97843.50;4349903;33;19979;-78
2024/01/08 07:55:50;;;;;;;;;;;;;;;-3.13;82.01;97851.75;4349454;33;19966;-82
2024/01/08 07:58:17;;;;;;;;;;;;;;;-3.09;81.34;97850.94;4349499;32;19975;-81
2024/01/08 08:00:57;;;;;;;;;;;;;;;-2.56;79.25;97859.72;4352138;33;20319;-80
2024/01/08 08:03:24;;;;;;;;;;;;;;;-2.62;77.92;97856.34;4351933;32;19982;-81
2024/01/08 08:05:52;;;;;;;;;;;;;;;-2.55;77.66;97862.28;4351194;33;19985;-81
2024/01/08 08:08:19;;;;;;;;;;;;;;;-2.26;76.14;97854.00;4354912;33;19984;-81
2024/01/08 08:10:46;;;;;;;;;;;;;;;-2.06;74.56;97867.56;4353286;33;19983;-82
2024/01/08 08:13:13;;;;;;;;;;;;;;;-3.03;77.75;97875.41;4349817;33;20045;-82
2024/01/08 08:15:40;;;;;;;;;;;;;;;-2.71;76.69;97863.84;4350653;33;20259;-80
2024/01/08 08:18:07;;;;;;;;;;;;;;;-2.19;75.42;97881.84;4349571;33;20058;-82
2024/01/08 08:20:36;;;;;;;;;;;;;;;-1.63;72.91;97878.69;4349766;33;19987;-82
2024/01/08 08:23:03;;;;;;;;;;;;;;;-1.76;72.08;97882.03;4351490;33;19979;-82
2024/01/08 08:25:30;;;;;;;;;;;;;;;-1.97;71.98;97880.25;4350784;33;19971;-82
2024/01/08 08:27:57;;;;;;;;;;;;;;;-2.05;73.37;97882.75;4351001;33;19982;-82
2024/01/08 08:30:24;;;;;;;;;;;;;;;-1.66;72.23;97895.56;4351868;33;20067;-81
2024/01/08 08:32:55;;;;;;;;;;;;;;;-2.03;71.52;97892.88;4351063;33;19997;-82
2024/01/08 08:35:22;;;;;;;;;;;;;;;-1.59;70.66;97898.13;4351366;33;19991;-82
2024/01/08 08:37:49;;;;;;;;;;;;;;;-2.33;72.32;97891.91;4349971;33;19985;-82
2024/01/08 08:40:20;;;;;;;;;;;;;;;-2.17;71.61;97900.38;4357068;33;19990;-85
2024/01/08 08:42:47;;;;;;;;;;;;;;;-1.83;72.36;97901.38;4361222;33;19965;-84
2024/01/08 08:45:20;;;;;;;;;;;;;;;-2.27;72.48;97901.19;4361996;32;19999;-83
2024/01/08 08:47:46;;;;;;;;;;;;;;;-2.58;74.25;97912.75;4359600;33;19981;-84
2024/01/08 08:50:14;;;;;;;;;;;;;;;-1.98;71.94;97915.66;4354747;33;20031;-84
2024/01/08 08:52:43;;;;;;;;;;;;;;;-2.23;73.06;97919.72;4355606;32;19961;-84
2024/01/08 08:55:12;;;;;;;;;;;;;;;-2.42;73.42;97928.91;4352073;33;19982;-83
2024/01/08 08:57:39;;;;;;;;;;;;;;;-2.01;72.12;97931.66;4351258;32;19986;-83
2024/01/08 09:00:09;;;;;;;;;;;;;;;-1.15;69.29;97940.41;4351352;33;20022;-83
2024/01/08 09:02:37;;;;;;;;;;;;;;;-0.85;68.16;97932.00;4351120;33;19997;-83
2024/01/08 09:17:30;;;;;;;29.63;13.70;;;;;;;-1.87;71.96;97939.31;5375733;26;169857;-84
2024/01/08 09:54:12;;;;;;;35.58;12.73;;;;;;;-2.00;73.60;97958.63;5260074;27;20092;-84
2024/01/08 09:56:39;;;;;;;30.52;12.00;;;;;;;-1.95;72.95;97951.91;5270536;27;20057;-84
2024/01/08 09:59:10;;;;;;;29.37;12.07;;;;;;;-1.95;72.24;97953.59;5289428;27;20104;-86
2024/01/08 10:01:37;;;;;;;27.45;11.20;;;;;;;-1.98;73.51;97961.16;5292834;27;20344;-90
2024/01/08 10:04:09;;;;;;;30.33;11.52;;;;;;;-2.34;74.33;97962.62;5290284;27;20080;-91
2024/01/08 10:06:38;;;;;;;34.63;13.80;;;;;;;-2.64;75.82;97964.09;5267455;27;20517;-88
2024/01/08 10:09:05;;;;;;;26.48;10.50;;;;;;;-2.38;74.84;97974.37;5287294;27;20046;-87
2024/01/08 10:11:32;;;;;;;;;;;;;;;-2.35;74.93;97956.72;5294281;27;20057;-88
2024/01/08 10:13:58;;;;;;;30.98;12.85;;;;;;;-2.12;74.71;97961.09;5290488;27;19937;-88
2024/01/08 10:16:25;;;;;;;27.75;11.77;;;;;;;-1.93;73.49;97946.84;5292947;27;20022;-88
2024/01/08 10:19:15;;;;;;;29.47;13.23;;;;;;;-2.26;74.69;97940.78;5283319;27;20072;-89
2024/01/08 10:21:42;;;;;;;32.10;13.45;;;;;;;-2.03;73.24;97954.38;5285575;27;20049;-88
2024/01/08 10:24:09;;;;;;;30.42;11.93;;;;;;;-1.56;72.69;97953.78;5288245;27;20036;-88
2024/01/08 10:26:41;;;;;;;30.27;12.52;;;;;;;-1.11;71.48;97953.91;5288345;27;20125;-87
2024/01/08 10:29:13;;;;;;;31.17;12.77;;;;;;;-1.46;72.48;97962.25;5283265;27;20103;-90
2024/01/08 10:31:40;;;;;;;32.83;12.60;;;;;;;-1.48;71.37;97959.72;5280943;27;20054;-88
2024/01/08 10:34:07;;;;;;;28.90;12.43;;;;;;;-1.69;71.68;97946.97;5283589;27;20077;-87
2024/01/08 10:36:35;;;;;;;33.60;13.25;;;;;;;-1.59;72.19;97952.94;5283386;26;20036;-83
2024/01/08 10:39:09;;;;;;;28.87;13.15;;;;;;;-2.44;74.15;97960.88;5303544;27;20056;-84
2024/01/08 10:41:36;;;;;;;25.30;11.73;;;;;;;-2.36;75.32;97966.81;5303319;27;20183;-87
2024/01/08 10:44:04;;;;;;;24.50;10.85;;;;;;;-2.18;73.70;97954.31;5306805;27;20098;-87
2024/01/08 10:46:40;;;;;;;29.60;12.55;;;;;;;-2.05;73.41;97953.53;5324129;27;20108;-87
2024/01/08 10:49:15;;;;;;;32.05;11.90;;;;;;;-2.40;74.94;97949.94;5327483;27;20357;-89
2024/01/08 10:51:44;;;;;;;32.00;12.07;;;;;;;-1.80;73.74;97951.16;5327097;27;20399;-87
2024/01/08 10:54:14;;;;;;;27.13;10.88;;;;;;;-1.82;73.08;97943.53;5327462;27;20117;-88
2024/01/08 10:56:41;;;;;;;30.65;12.93;;;;;;;-1.70;73.08;97939.38;5323944;27;20465;-85
2024/01/08 10:59:08;;;;;;;31.48;10.57;;;;;;;-2.22;74.84;97959.34;5323883;27;20060;-86
2024/01/08 11:01:36;;;;;;;27.08;10.20;;;;;;;-1.91;74.55;97952.78;5326299;27;20041;-86
2024/01/08 11:04:04;;;;;;;29.98;12.70;;;;;;;-1.67;73.68;97941.94;5326780;27;20080;-88
2024/01/08 11:06:33;;;;;;;33.28;14.23;;;;;;;-1.90;73.67;97944.34;5327259;27;20075;-87
2024/01/08 11:09:04;;;;;;;31.17;13.20;;;;;;;-1.43;73.44;97951.28;5329485;27;20429;-88
2024/01/08 11:11:37;;;;;;;31.92;13.77;;;;;;;-1.76;73.89;97953.69;5325812;27;20056;-87
2024/01/08 11:14:07;;;;;;;32.28;12.73;;;;;;;-1.79;72.25;97948.63;5326192;27;20418;-86
2024/01/08 11:16:34;;;;;;;31.62;13.50;;;;;;;-1.26;72.09;97957.25;5324169;27;20127;-87
2024/01/08 11:19:17;;;;;;;32.75;13.45;;;;;;;-1.10;71.74;97951.34;5328354;27;20098;-89
2024/01/08 11:21:55;;;;;;;30.50;13.15;;;;;;;-0.97;70.19;97958.13;5328818;27;20053;-86
2024/01/08 11:24:23;;;;;;;27.87;12.32;;;;;;;-1.88;72.87;97950.25;5329073;27;20080;-87
2024/01/08 11:26:59;;;;;;;30.37;12.63;;;;;;;-1.89;73.22;97951.09;5317585;27;20057;-89
2024/01/08 11:29:26;;;;;;;34.50;13.18;;;;;;;-1.61;72.72;97952.06;5328235;27;20048;-87
2024/01/08 11:32:11;;;;;;;29.42;12.70;;;;;;;-1.60;73.03;97964.69;5328268;27;20392;-88
2024/01/08 11:34:59;;;;;;;32.25;12.90;;;;;;;-2.23;74.25;97960.16;5310087;27;20110;-88
2024/01/08 11:37:36;;;;;;;29.70;12.65;;;;;;;-1.87;73.33;97969.66;5307609;27;20026;-89
2024/01/08 11:40:16;;;;;;;31.80;14.33;;;;;;;-1.80;74.67;97972.22;5311491;27;20059;-88
2024/01/08 11:42:45;;;;;;;36.05;12.88;;;;;;;-1.29;72.32;97973.25;5306549;27;20133;-87
2024/01/08 11:45:12;;;;;;;32.08;13.07;;;;;;;-1.29;72.44;97978.31;5324247;27;20060;-86
2024/01/08 11:47:39;;;;;;;32.78;13.50;;;;;;;-1.49;72.51;97982.47;5326465;27;20337;-87
2024/01/08 11:50:07;;;;;;;32.03;13.00;;;;;;;-1.44;72.91;97982.50;5324971;27;20053;-88
2024/01/08 11:52:36;;;;;;;28.27;11.98;;;;;;;-1.86;73.24;97987.34;5325854;27;20041;-88
2024/01/08 11:55:05;;;;;;;33.72;13.50;;;;;;;-1.60;73.90;97976.50;5326234;27;20021;-87
2024/01/08 11:57:32;;;;;;;30.30;12.65;;;;;;;-1.87;73.61;97985.66;5325999;27;20071;-88
2024/01/08 11:59:58;;;;;;;30.90;13.02;;;;;;;-2.12;73.68;97977.09;5326370;27;20044;-88
2024/01/08 12:02:27;;;;;;;29.25;11.95;;;;;;;-1.67;73.77;97982.41;5326037;27;20502;-88
2024/01/08 12:04:58;;;;;;;27.55;12.52;;;;;;;-1.93;74.31;97984.78;5325641;27;20031;-87
2024/01/08 12:07:27;;;;;;;28.23;12.15;;;;;;;-2.00;75.14;97990.66;5326544;27;20036;-88
2024/01/08 12:09:55;;;;;;;32.78;13.55;;;;;;;-2.00;74.94;97981.41;5325156;27;20045;-87
2024/01/08 12:12:24;;;;;;;31.45;12.40;;;;;;;-1.79;73.48;97988.25;5305215;27;20046;-87
2024/01/08 12:14:51;;;;;;;33.33;13.73;;;;;;;-1.80;74.37;97982.34;5325493;27;20110;-88
2024/01/08 12:17:18;;;;;;;30.80;13.13;;;;;;;-1.49;74.32;97990.03;5305187;27;20103;-85
2024/01/08 12:19:49;;;;;;;31.42;11.55;;;;;;;-1.46;72.79;97975.75;5326412;27;20104;-89
2024/01/08 12:22:19;;;;;;;26.33;12.25;;;;;;;-2.09;74.87;97988.91;5328236;27;20373;-88
2024/01/08 12:24:49;;;;;;;31.12;12.37;;;;;;;-2.00;74.32;97983.91;5325434;27;20061;-88
2024/01/08 12:27:17;;;;;;;30.10;11.43;;;;;;;-2.19;76.03;97988.00;5303980;27;20052;-89
2024/01/08 12:29:45;;;;;;;28.55;11.82;;;;;;;-1.58;74.32;97995.09;5304700;27;20078;-88
2024/01/08 12:32:18;;;;;;;33.78;13.35;;;;;;;-1.46;73.37;97998.53;5324011;27;20045;-88
2024/01/08 12:34:45;;;;;;;31.08;13.18;;;;;;;-1.88;74.63;98000.84;5324698;27;20116;-88
2024/01/08 12:37:14;;;;;;;32.78;13.15;;;;;;;-2.39;74.88;98002.19;5301497;27;20081;-88
2024/01/08 12:39:41;;;;;;;28.77;13.18;;;;;;;-1.67;74.23;98008.53;5285121;27;20026;-89
2024/01/08 12:42:13;;;;;;;33.95;14.27;;;;;;;-1.60;74.56;98011.94;5284665;27;20079;-88
2024/01/08 12:44:41;;;;;;;33.00;13.15;;;;;;;-1.39;72.78;98001.91;5301815;27;20073;-89
2024/01/08 12:47:08;;;;;;;33.00;13.85;;;;;;;-1.58;73.41;98007.75;5281788;27;20057;-88
2024/01/08 12:49:35;;;;;;;29.85;13.38;;;;;;;-2.25;75.60;98017.44;5301881;27;20041;-88
2024/01/08 12:52:03;;;;;;;33.55;13.23;;;;;;;-2.11;74.88;98015.88;5301510;27;20045;-88
2024/01/08 12:54:41;;;;;;;29.70;13.35;;;;;;;-2.04;75.11;98012.53;5303568;27;20036;-88
2024/01/08 12:57:10;;;;;;;35.65;13.30;;;;;;;-2.11;75.43;98020.94;5285044;27;20523;-89
2024/01/08 12:59:50;;;;;;;31.17;13.45;;;;;;;-2.32;76.31;98019.09;5301527;27;20053;-89
2024/01/08 13:02:17;;;;;;;32.30;12.55;;;;;;;-2.69;78.13;98025.50;5300613;27;20050;-88
2024/01/08 13:04:45;;;;;;;34.67;14.30;;;;;;;-2.51;77.69;98030.72;5282732;27;20057;-87
2024/01/08 13:07:12;;;;;;;33.72;13.13;;;;;;;-2.48;77.63;98038.31;5301516;27;20677;-86
2024/01/08 13:09:39;;;;;;;31.15;13.05;;;;;;;-1.95;76.01;98034.50;5303024;27;20045;-87